sensor_id;sensor_type;location;lat;lon;timestamp;P1;durP1;ratioP1;P2;durP2;ratioP2
13580;SDS011;6861;46.170;7.222;2022-11-25T00:02:08;6.32;;;2.97;;
13580;SDS011;6861;46.170;7.222;2022-11-25T00:04:34;5.60;;;2.67;;
13580;SDS011;6861;46.170;7.222;2022-11-25T00:07:03;4.65;;;2.75;;
13580;SDS011;6861;46.170;7.222;2022-11-25T00:09:30;5.05;;;2.88;;
13580;SDS011;6861;46.170;7.222;2022-11-25T00:11:57;4.00;;;3.08;;
13580;SDS011;6861;46.170;7.222;2022-11-25T00:14:25;5.60;;;3.83;;
13580;SDS011;6861;46.170;7.222;2022-11-25T00:16:52;6.10;;;4.10;;
13580;SDS011;6861;46.170;7.222;2022-11-25T00:19:18;7.60;;;4.40;;
13580;SDS011;6861;46.170;7.222;2022-11-25T00:21:45;5.93;;;3.80;;
13580;SDS011;6861;46.170;7.222;2022-11-25T00:24:13;4.70;;;3.38;;
13580;SDS011;6861;46.170;7.222;2022-11-25T00:26:41;5.28;;;3.42;;
13580;SDS011;6861;46.170;7.222;2022-11-25T00:29:09;4.75;;;3.53;;
13580;SDS011;6861;46.170;7.222;2022-11-25T00:31:39;5.75;;;3.47;;
13580;SDS011;6861;46.170;7.222;2022-11-25T00:34:09;6.28;;;3.67;;
13580;SDS011;6861;46.170;7.222;2022-11-25T00:36:37;5.25;;;3.50;;
13580;SDS011;6861;46.170;7.222;2022-11-25T00:39:05;7.00;;;3.42;;
13580;SDS011;6861;46.170;7.222;2022-11-25T00:41:33;5.28;;;3.70;;
13580;SDS011;6861;46.170;7.222;2022-11-25T00:44:18;4.63;;;3.08;;
13580;SDS011;6861;46.170;7.222;2022-11-25T00:47:02;6.07;;;3.05;;
13580;SDS011;6861;46.170;7.222;2022-11-25T00:49:29;5.40;;;3.40;;
13580;SDS011;6861;46.170;7.222;2022-11-25T00:51:57;5.97;;;3.50;;
13580;SDS011;6861;46.170;7.222;2022-11-25T00:54:24;6.43;;;3.65;;
13580;SDS011;6861;46.170;7.222;2022-11-25T00:56:51;5.05;;;3.22;;
13580;SDS011;6861;46.170;7.222;2022-11-25T00:59:18;5.97;;;3.25;;
13580;SDS011;6861;46.170;7.222;2022-11-25T01:01:45;4.43;;;2.85;;
13580;SDS011;6861;46.170;7.222;2022-11-25T01:04:14;6.43;;;2.75;;
13580;SDS011;6861;46.170;7.222;2022-11-25T01:06:41;4.25;;;2.33;;
13580;SDS011;6861;46.170;7.222;2022-11-25T01:09:09;3.53;;;2.40;;
13580;SDS011;6861;46.170;7.222;2022-11-25T01:11:37;4.53;;;2.42;;
13580;SDS011;6861;46.170;7.222;2022-11-25T01:14:05;3.80;;;2.17;;
13580;SDS011;6861;46.170;7.222;2022-11-25T01:16:32;3.63;;;2.30;;
13580;SDS011;6861;46.170;7.222;2022-11-25T01:18:59;5.28;;;2.53;;
13580;SDS011;6861;46.170;7.222;2022-11-25T01:21:28;8.27;;;2.63;;
13580;SDS011;6861;46.170;7.222;2022-11-25T01:23:57;4.47;;;2.55;;
13580;SDS011;6861;46.170;7.222;2022-11-25T01:26:25;4.55;;;2.78;;
13580;SDS011;6861;46.170;7.222;2022-11-25T01:28:53;4.60;;;2.85;;
13580;SDS011;6861;46.170;7.222;2022-11-25T01:31:22;4.90;;;3.15;;
13580;SDS011;6861;46.170;7.222;2022-11-25T01:33:51;6.47;;;3.17;;
13580;SDS011;6861;46.170;7.222;2022-11-25T01:36:19;4.32;;;2.65;;
13580;SDS011;6861;46.170;7.222;2022-11-25T01:38:49;4.65;;;3.15;;
13580;SDS011;6861;46.170;7.222;2022-11-25T01:41:18;5.78;;;3.17;;
13580;SDS011;6861;46.170;7.222;2022-11-25T01:46:42;5.72;;;3.03;;
13580;SDS011;6861;46.170;7.222;2022-11-25T01:49:13;6.97;;;3.25;;
13580;SDS011;6861;46.170;7.222;2022-11-25T01:51:44;6.25;;;3.55;;
13580;SDS011;6861;46.170;7.222;2022-11-25T01:54:19;4.88;;;3.20;;
13580;SDS011;6861;46.170;7.222;2022-11-25T01:56:49;5.55;;;3.15;;
13580;SDS011;6861;46.170;7.222;2022-11-25T01:59:22;7.30;;;3.53;;
13580;SDS011;6861;46.170;7.222;2022-11-25T02:01:49;6.20;;;3.40;;
13580;SDS011;6861;46.170;7.222;2022-11-25T02:04:17;4.03;;;3.00;;
13580;SDS011;6861;46.170;7.222;2022-11-25T02:06:48;6.25;;;3.20;;
13580;SDS011;6861;46.170;7.222;2022-11-25T02:09:19;5.22;;;3.20;;
13580;SDS011;6861;46.170;7.222;2022-11-25T02:11:47;7.40;;;3.15;;
13580;SDS011;6861;46.170;7.222;2022-11-25T02:14:18;4.72;;;3.30;;
13580;SDS011;6861;46.170;7.222;2022-11-25T02:16:47;5.78;;;3.35;;
13580;SDS011;6861;46.170;7.222;2022-11-25T02:19:16;5.15;;;3.63;;
13580;SDS011;6861;46.170;7.222;2022-11-25T02:21:50;5.63;;;3.33;;
13580;SDS011;6861;46.170;7.222;2022-11-25T02:24:21;4.75;;;3.70;;
13580;SDS011;6861;46.170;7.222;2022-11-25T02:26:56;5.60;;;3.38;;
13580;SDS011;6861;46.170;7.222;2022-11-25T02:29:24;4.68;;;3.30;;
13580;SDS011;6861;46.170;7.222;2022-11-25T02:31:51;5.68;;;3.70;;
13580;SDS011;6861;46.170;7.222;2022-11-25T02:34:18;5.38;;;3.58;;
13580;SDS011;6861;46.170;7.222;2022-11-25T02:36:45;5.03;;;3.65;;
13580;SDS011;6861;46.170;7.222;2022-11-25T02:39:12;4.72;;;3.72;;
13580;SDS011;6861;46.170;7.222;2022-11-25T02:41:39;4.93;;;3.33;;
13580;SDS011;6861;46.170;7.222;2022-11-25T02:44:10;5.15;;;3.85;;
13580;SDS011;6861;46.170;7.222;2022-11-25T02:46:37;5.38;;;4.18;;
13580;SDS011;6861;46.170;7.222;2022-11-25T02:49:04;5.10;;;4.13;;
13580;SDS011;6861;46.170;7.222;2022-11-25T02:51:31;5.75;;;4.10;;
13580;SDS011;6861;46.170;7.222;2022-11-25T02:53:58;6.10;;;4.03;;
13580;SDS011;6861;46.170;7.222;2022-11-25T02:56:27;4.40;;;3.70;;
13580;SDS011;6861;46.170;7.222;2022-11-25T02:58:56;6.05;;;3.60;;
13580;SDS011;6861;46.170;7.222;2022-11-25T03:01:25;5.00;;;3.58;;
13580;SDS011;6861;46.170;7.222;2022-11-25T03:03:52;5.78;;;3.72;;
13580;SDS011;6861;46.170;7.222;2022-11-25T03:06:19;6.72;;;3.28;;
13580;SDS011;6861;46.170;7.222;2022-11-25T03:08:45;7.38;;;3.85;;
13580;SDS011;6861;46.170;7.222;2022-11-25T03:11:12;4.78;;;3.35;;
13580;SDS011;6861;46.170;7.222;2022-11-25T03:13:39;6.00;;;3.65;;
13580;SDS011;6861;46.170;7.222;2022-11-25T03:16:06;4.45;;;3.20;;
13580;SDS011;6861;46.170;7.222;2022-11-25T03:18:35;4.45;;;3.03;;
13580;SDS011;6861;46.170;7.222;2022-11-25T03:21:02;4.93;;;3.10;;
13580;SDS011;6861;46.170;7.222;2022-11-25T03:23:28;4.15;;;2.53;;
13580;SDS011;6861;46.170;7.222;2022-11-25T03:25:55;4.13;;;2.78;;
13580;SDS011;6861;46.170;7.222;2022-11-25T03:28:22;4.32;;;3.35;;
13580;SDS011;6861;46.170;7.222;2022-11-25T03:30:49;4.00;;;1.95;;
13580;SDS011;6861;46.170;7.222;2022-11-25T03:33:16;3.15;;;2.03;;
13580;SDS011;6861;46.170;7.222;2022-11-25T03:35:44;3.80;;;1.98;;
13580;SDS011;6861;46.170;7.222;2022-11-25T03:38:13;4.75;;;3.00;;
13580;SDS011;6861;46.170;7.222;2022-11-25T03:40:40;4.45;;;3.20;;
13580;SDS011;6861;46.170;7.222;2022-11-25T03:43:06;4.88;;;3.38;;
13580;SDS011;6861;46.170;7.222;2022-11-25T03:45:33;5.25;;;3.58;;
13580;SDS011;6861;46.170;7.222;2022-11-25T03:48:00;6.65;;;3.33;;
13580;SDS011;6861;46.170;7.222;2022-11-25T03:50:27;5.90;;;3.00;;
13580;SDS011;6861;46.170;7.222;2022-11-25T03:52:55;6.20;;;3.47;;
13580;SDS011;6861;46.170;7.222;2022-11-25T03:55:22;5.05;;;3.08;;
13580;SDS011;6861;46.170;7.222;2022-11-25T03:57:49;4.13;;;3.08;;
13580;SDS011;6861;46.170;7.222;2022-11-25T04:00:16;5.63;;;2.97;;
13580;SDS011;6861;46.170;7.222;2022-11-25T04:02:43;3.92;;;3.00;;
13580;SDS011;6861;46.170;7.222;2022-11-25T04:05:10;6.63;;;3.53;;
13580;SDS011;6861;46.170;7.222;2022-11-25T04:07:37;6.72;;;3.35;;
13580;SDS011;6861;46.170;7.222;2022-11-25T04:10:06;4.40;;;2.97;;
13580;SDS011;6861;46.170;7.222;2022-11-25T04:12:33;4.40;;;3.03;;
13580;SDS011;6861;46.170;7.222;2022-11-25T04:15:11;4.78;;;2.85;;
13580;SDS011;6861;46.170;7.222;2022-11-25T04:17:39;4.18;;;2.90;;
13580;SDS011;6861;46.170;7.222;2022-11-25T04:20:06;5.50;;;3.58;;
13580;SDS011;6861;46.170;7.222;2022-11-25T04:22:34;4.20;;;3.10;;
13580;SDS011;6861;46.170;7.222;2022-11-25T04:25:01;5.88;;;3.25;;
13580;SDS011;6861;46.170;7.222;2022-11-25T04:27:30;5.35;;;2.88;;
13580;SDS011;6861;46.170;7.222;2022-11-25T04:29:57;4.47;;;2.83;;
13580;SDS011;6861;46.170;7.222;2022-11-25T04:32:24;4.93;;;3.05;;
13580;SDS011;6861;46.170;7.222;2022-11-25T04:34:51;3.67;;;2.50;;
13580;SDS011;6861;46.170;7.222;2022-11-25T04:37:18;5.32;;;2.95;;
13580;SDS011;6861;46.170;7.222;2022-11-25T04:39:45;3.97;;;2.60;;
13580;SDS011;6861;46.170;7.222;2022-11-25T04:42:12;5.65;;;3.55;;
13580;SDS011;6861;46.170;7.222;2022-11-25T04:45:00;7.00;;;4.13;;
13580;SDS011;6861;46.170;7.222;2022-11-25T04:47:28;6.35;;;3.90;;
13580;SDS011;6861;46.170;7.222;2022-11-25T04:49:56;6.28;;;4.03;;
13580;SDS011;6861;46.170;7.222;2022-11-25T04:52:23;6.68;;;4.00;;
13580;SDS011;6861;46.170;7.222;2022-11-25T04:54:50;6.28;;;3.42;;
13580;SDS011;6861;46.170;7.222;2022-11-25T04:57:17;6.03;;;2.92;;
13580;SDS011;6861;46.170;7.222;2022-11-25T04:59:44;3.33;;;2.42;;
13580;SDS011;6861;46.170;7.222;2022-11-25T05:02:15;3.13;;;2.33;;
13580;SDS011;6861;46.170;7.222;2022-11-25T05:04:43;4.47;;;2.70;;
13580;SDS011;6861;46.170;7.222;2022-11-25T05:07:12;3.55;;;2.60;;
13580;SDS011;6861;46.170;7.222;2022-11-25T05:09:39;5.63;;;2.47;;
13580;SDS011;6861;46.170;7.222;2022-11-25T05:12:07;4.50;;;2.90;;
13580;SDS011;6861;46.170;7.222;2022-11-25T05:14:36;3.15;;;2.17;;
13580;SDS011;6861;46.170;7.222;2022-11-25T05:17:03;4.95;;;2.40;;
13580;SDS011;6861;46.170;7.222;2022-11-25T05:19:33;3.55;;;2.20;;
13580;SDS011;6861;46.170;7.222;2022-11-25T05:22:00;5.32;;;2.50;;
13580;SDS011;6861;46.170;7.222;2022-11-25T05:24:27;4.22;;;2.60;;
13580;SDS011;6861;46.170;7.222;2022-11-25T05:26:54;4.20;;;2.67;;
13580;SDS011;6861;46.170;7.222;2022-11-25T05:29:21;2.95;;;2.17;;
13580;SDS011;6861;46.170;7.222;2022-11-25T05:31:48;3.45;;;2.38;;
13580;SDS011;6861;46.170;7.222;2022-11-25T05:34:14;2.75;;;2.25;;
13580;SDS011;6861;46.170;7.222;2022-11-25T05:36:43;4.40;;;2.97;;
13580;SDS011;6861;46.170;7.222;2022-11-25T05:39:10;3.85;;;2.65;;
13580;SDS011;6861;46.170;7.222;2022-11-25T05:41:36;3.88;;;2.50;;
13580;SDS011;6861;46.170;7.222;2022-11-25T05:44:03;5.53;;;2.80;;
13580;SDS011;6861;46.170;7.222;2022-11-25T05:46:30;4.20;;;2.78;;
13580;SDS011;6861;46.170;7.222;2022-11-25T05:48:57;5.13;;;2.70;;
13580;SDS011;6861;46.170;7.222;2022-11-25T05:51:24;5.63;;;2.60;;
13580;SDS011;6861;46.170;7.222;2022-11-25T05:53:53;4.53;;;2.63;;
13580;SDS011;6861;46.170;7.222;2022-11-25T05:56:20;4.63;;;2.60;;
13580;SDS011;6861;46.170;7.222;2022-11-25T05:58:47;4.47;;;2.95;;
13580;SDS011;6861;46.170;7.222;2022-11-25T06:01:15;4.13;;;2.58;;
13580;SDS011;6861;46.170;7.222;2022-11-25T06:03:42;4.50;;;2.78;;
13580;SDS011;6861;46.170;7.222;2022-11-25T06:06:09;5.05;;;2.67;;
13580;SDS011;6861;46.170;7.222;2022-11-25T06:08:37;4.85;;;2.60;;
13580;SDS011;6861;46.170;7.222;2022-11-25T06:11:06;4.70;;;2.67;;
13580;SDS011;6861;46.170;7.222;2022-11-25T06:13:36;3.83;;;2.60;;
13580;SDS011;6861;46.170;7.222;2022-11-25T06:16:07;4.82;;;2.50;;
13580;SDS011;6861;46.170;7.222;2022-11-25T06:18:34;2.85;;;2.20;;
13580;SDS011;6861;46.170;7.222;2022-11-25T06:21:02;3.70;;;2.28;;
13580;SDS011;6861;46.170;7.222;2022-11-25T06:23:30;4.57;;;2.20;;
13580;SDS011;6861;46.170;7.222;2022-11-25T06:26:01;1.95;;;1.50;;
13580;SDS011;6861;46.170;7.222;2022-11-25T06:28:30;4.30;;;2.03;;
13580;SDS011;6861;46.170;7.222;2022-11-25T06:31:02;2.95;;;2.00;;
13580;SDS011;6861;46.170;7.222;2022-11-25T06:33:30;3.47;;;2.30;;
13580;SDS011;6861;46.170;7.222;2022-11-25T06:35:57;5.00;;;3.17;;
13580;SDS011;6861;46.170;7.222;2022-11-25T06:38:24;4.60;;;3.42;;
13580;SDS011;6861;46.170;7.222;2022-11-25T06:40:51;5.77;;;3.10;;
13580;SDS011;6861;46.170;7.222;2022-11-25T06:43:18;6.72;;;3.58;;
13580;SDS011;6861;46.170;7.222;2022-11-25T06:45:46;4.20;;;3.30;;
13580;SDS011;6861;46.170;7.222;2022-11-25T06:48:13;4.35;;;2.72;;
13580;SDS011;6861;46.170;7.222;2022-11-25T06:50:40;6.20;;;3.25;;
13580;SDS011;6861;46.170;7.222;2022-11-25T06:53:07;6.00;;;3.40;;
13580;SDS011;6861;46.170;7.222;2022-11-25T06:55:33;6.05;;;3.28;;
13580;SDS011;6861;46.170;7.222;2022-11-25T06:58:00;5.05;;;3.10;;
13580;SDS011;6861;46.170;7.222;2022-11-25T07:00:27;5.47;;;2.90;;
13580;SDS011;6861;46.170;7.222;2022-11-25T07:02:55;4.22;;;3.08;;
13580;SDS011;6861;46.170;7.222;2022-11-25T07:05:23;4.22;;;3.13;;
13580;SDS011;6861;46.170;7.222;2022-11-25T07:07:50;3.92;;;3.00;;
13580;SDS011;6861;46.170;7.222;2022-11-25T07:10:17;4.35;;;2.50;;
13580;SDS011;6861;46.170;7.222;2022-11-25T07:12:43;4.72;;;2.45;;
13580;SDS011;6861;46.170;7.222;2022-11-25T07:15:10;3.03;;;2.50;;
13580;SDS011;6861;46.170;7.222;2022-11-25T07:17:37;8.85;;;4.22;;
13580;SDS011;6861;46.170;7.222;2022-11-25T07:20:06;6.88;;;3.92;;
13580;SDS011;6861;46.170;7.222;2022-11-25T07:22:34;5.80;;;3.47;;
13580;SDS011;6861;46.170;7.222;2022-11-25T07:25:00;9.48;;;4.15;;
13580;SDS011;6861;46.170;7.222;2022-11-25T07:27:28;9.15;;;4.32;;
13580;SDS011;6861;46.170;7.222;2022-11-25T07:29:55;13.07;;;4.50;;
13580;SDS011;6861;46.170;7.222;2022-11-25T07:32:21;8.15;;;4.28;;
13580;SDS011;6861;46.170;7.222;2022-11-25T07:34:48;7.38;;;4.50;;
13580;SDS011;6861;46.170;7.222;2022-11-25T07:37:17;9.93;;;3.63;;
13580;SDS011;6861;46.170;7.222;2022-11-25T07:39:44;12.27;;;3.80;;
13580;SDS011;6861;46.170;7.222;2022-11-25T07:42:11;13.10;;;6.97;;
13580;SDS011;6861;46.170;7.222;2022-11-25T07:44:38;18.17;;;7.73;;
13580;SDS011;6861;46.170;7.222;2022-11-25T07:47:05;5.45;;;3.40;;
13580;SDS011;6861;46.170;7.222;2022-11-25T07:49:32;5.63;;;3.55;;
13580;SDS011;6861;46.170;7.222;2022-11-25T07:51:58;4.85;;;3.10;;
13580;SDS011;6861;46.170;7.222;2022-11-25T07:54:27;3.70;;;2.50;;
13580;SDS011;6861;46.170;7.222;2022-11-25T07:56:55;2.95;;;2.25;;
13580;SDS011;6861;46.170;7.222;2022-11-25T07:59:22;6.57;;;3.97;;
13580;SDS011;6861;46.170;7.222;2022-11-25T08:01:49;12.50;;;7.20;;
13580;SDS011;6861;46.170;7.222;2022-11-25T08:04:17;9.60;;;3.83;;
13580;SDS011;6861;46.170;7.222;2022-11-25T08:06:45;8.20;;;3.83;;
13580;SDS011;6861;46.170;7.222;2022-11-25T08:09:13;7.47;;;3.83;;
13580;SDS011;6861;46.170;7.222;2022-11-25T08:11:44;12.43;;;6.22;;
13580;SDS011;6861;46.170;7.222;2022-11-25T08:14:11;10.25;;;5.72;;
13580;SDS011;6861;46.170;7.222;2022-11-25T08:16:38;11.02;;;6.97;;
13580;SDS011;6861;46.170;7.222;2022-11-25T08:19:05;11.85;;;5.47;;
13580;SDS011;6861;46.170;7.222;2022-11-25T08:21:35;8.95;;;6.57;;
13580;SDS011;6861;46.170;7.222;2022-11-25T08:24:02;11.95;;;4.93;;
13580;SDS011;6861;46.170;7.222;2022-11-25T08:26:30;8.40;;;5.13;;
13580;SDS011;6861;46.170;7.222;2022-11-25T08:29:01;9.07;;;4.70;;
13580;SDS011;6861;46.170;7.222;2022-11-25T08:31:30;9.23;;;4.18;;
13580;SDS011;6861;46.170;7.222;2022-11-25T08:33:59;7.93;;;4.70;;
13580;SDS011;6861;46.170;7.222;2022-11-25T08:36:26;9.63;;;3.70;;
13580;SDS011;6861;46.170;7.222;2022-11-25T08:38:55;5.68;;;2.90;;
13580;SDS011;6861;46.170;7.222;2022-11-25T08:41:24;4.55;;;2.83;;
13580;SDS011;6861;46.170;7.222;2022-11-25T08:43:53;6.35;;;3.75;;
13580;SDS011;6861;46.170;7.222;2022-11-25T08:46:22;5.95;;;3.50;;
13580;SDS011;6861;46.170;7.222;2022-11-25T08:48:51;3.85;;;3.33;;
13580;SDS011;6861;46.170;7.222;2022-11-25T08:51:19;4.57;;;2.55;;
13580;SDS011;6861;46.170;7.222;2022-11-25T08:53:47;5.38;;;2.90;;
13580;SDS011;6861;46.170;7.222;2022-11-25T08:56:16;4.45;;;2.65;;
13580;SDS011;6861;46.170;7.222;2022-11-25T08:58:43;4.45;;;3.00;;
13580;SDS011;6861;46.170;7.222;2022-11-25T09:01:11;4.60;;;2.30;;
13580;SDS011;6861;46.170;7.222;2022-11-25T09:03:41;3.42;;;2.40;;
13580;SDS011;6861;46.170;7.222;2022-11-25T09:06:10;9.65;;;4.30;;
13580;SDS011;6861;46.170;7.222;2022-11-25T09:08:38;11.05;;;5.55;;
13580;SDS011;6861;46.170;7.222;2022-11-25T09:11:06;8.82;;;5.47;;
13580;SDS011;6861;46.170;7.222;2022-11-25T09:13:33;4.90;;;3.28;;
13580;SDS011;6861;46.170;7.222;2022-11-25T09:16:00;7.43;;;3.95;;
13580;SDS011;6861;46.170;7.222;2022-11-25T09:18:28;5.85;;;3.95;;
13580;SDS011;6861;46.170;7.222;2022-11-25T09:20:58;7.95;;;3.58;;
13580;SDS011;6861;46.170;7.222;2022-11-25T09:23:25;5.85;;;3.58;;
13580;SDS011;6861;46.170;7.222;2022-11-25T09:25:52;9.30;;;3.70;;
13580;SDS011;6861;46.170;7.222;2022-11-25T09:28:21;8.25;;;3.63;;
13580;SDS011;6861;46.170;7.222;2022-11-25T09:30:48;6.65;;;3.30;;
13580;SDS011;6861;46.170;7.222;2022-11-25T09:33:16;6.32;;;3.63;;
13580;SDS011;6861;46.170;7.222;2022-11-25T09:35:43;6.20;;;3.40;;
13580;SDS011;6861;46.170;7.222;2022-11-25T09:38:12;4.85;;;3.20;;
13580;SDS011;6861;46.170;7.222;2022-11-25T09:40:41;7.10;;;3.10;;
13580;SDS011;6861;46.170;7.222;2022-11-25T09:43:17;5.82;;;3.38;;
13580;SDS011;6861;46.170;7.222;2022-11-25T09:46:08;6.88;;;4.07;;
13580;SDS011;6861;46.170;7.222;2022-11-25T09:49:21;7.60;;;4.43;;
13580;SDS011;6861;46.170;7.222;2022-11-25T09:51:59;6.05;;;3.63;;
13580;SDS011;6861;46.170;7.222;2022-11-25T09:54:34;6.10;;;3.75;;
13580;SDS011;6861;46.170;7.222;2022-11-25T09:57:18;18.92;;;8.02;;
13580;SDS011;6861;46.170;7.222;2022-11-25T09:59:51;11.75;;;6.30;;
13580;SDS011;6861;46.170;7.222;2022-11-25T10:02:27;12.73;;;6.95;;
13580;SDS011;6861;46.170;7.222;2022-11-25T10:05:02;6.65;;;3.97;;
13580;SDS011;6861;46.170;7.222;2022-11-25T10:07:35;10.10;;;4.57;;
13580;SDS011;6861;46.170;7.222;2022-11-25T10:10:10;10.02;;;4.70;;
13580;SDS011;6861;46.170;7.222;2022-11-25T10:12:44;10.15;;;5.97;;
13580;SDS011;6861;46.170;7.222;2022-11-25T10:15:14;11.90;;;6.22;;
13580;SDS011;6861;46.170;7.222;2022-11-25T10:17:44;8.25;;;5.30;;
13580;SDS011;6861;46.170;7.222;2022-11-25T10:20:16;9.18;;;4.50;;
13580;SDS011;6861;46.170;7.222;2022-11-25T10:22:46;10.77;;;6.45;;
13580;SDS011;6861;46.170;7.222;2022-11-25T10:25:18;12.57;;;6.95;;
13580;SDS011;6861;46.170;7.222;2022-11-25T10:27:48;15.18;;;10.27;;
13580;SDS011;6861;46.170;7.222;2022-11-25T10:30:18;7.38;;;5.30;;
13580;SDS011;6861;46.170;7.222;2022-11-25T10:32:50;9.52;;;6.15;;
13580;SDS011;6861;46.170;7.222;2022-11-25T10:35:20;5.80;;;4.32;;
13580;SDS011;6861;46.170;7.222;2022-11-25T10:37:53;9.30;;;4.20;;
13580;SDS011;6861;46.170;7.222;2022-11-25T10:40:25;6.13;;;4.13;;
13580;SDS011;6861;46.170;7.222;2022-11-25T10:42:52;5.10;;;3.90;;
13580;SDS011;6861;46.170;7.222;2022-11-25T10:45:19;8.07;;;4.70;;
13580;SDS011;6861;46.170;7.222;2022-11-25T10:50:54;7.22;;;3.58;;
13580;SDS011;6861;46.170;7.222;2022-11-25T10:53:32;5.15;;;3.58;;
13580;SDS011;6861;46.170;7.222;2022-11-25T10:56:02;4.07;;;3.33;;
13580;SDS011;6861;46.170;7.222;2022-11-25T10:58:31;6.60;;;3.70;;
13580;SDS011;6861;46.170;7.222;2022-11-25T11:01:03;3.85;;;2.40;;
13580;SDS011;6861;46.170;7.222;2022-11-25T11:03:32;3.88;;;2.50;;
13580;SDS011;6861;46.170;7.222;2022-11-25T11:06:00;2.80;;;2.15;;
13580;SDS011;6861;46.170;7.222;2022-11-25T11:08:27;2.88;;;1.85;;
13580;SDS011;6861;46.170;7.222;2022-11-25T11:11:13;5.63;;;3.10;;
13580;SDS011;6861;46.170;7.222;2022-11-25T11:13:42;3.28;;;2.20;;
13580;SDS011;6861;46.170;7.222;2022-11-25T11:16:28;2.97;;;1.80;;
13580;SDS011;6861;46.170;7.222;2022-11-25T11:18:59;4.38;;;2.70;;
13580;SDS011;6861;46.170;7.222;2022-11-25T11:21:28;3.65;;;2.30;;
13580;SDS011;6861;46.170;7.222;2022-11-25T11:23:57;1.50;;;1.30;;
13580;SDS011;6861;46.170;7.222;2022-11-25T11:26:27;2.50;;;0.98;;
13580;SDS011;6861;46.170;7.222;2022-11-25T11:28:57;1.17;;;0.90;;
13580;SDS011;6861;46.170;7.222;2022-11-25T11:31:26;1.02;;;0.80;;
13580;SDS011;6861;46.170;7.222;2022-11-25T11:33:57;1.83;;;0.70;;
13580;SDS011;6861;46.170;7.222;2022-11-25T11:36:42;2.65;;;1.58;;
13580;SDS011;6861;46.170;7.222;2022-11-25T11:39:24;2.13;;;0.82;;
13580;SDS011;6861;46.170;7.222;2022-11-25T11:42:09;4.43;;;1.80;;
13580;SDS011;6861;46.170;7.222;2022-11-25T11:44:49;2.30;;;0.90;;
13580;SDS011;6861;46.170;7.222;2022-11-25T11:47:29;1.70;;;1.00;;
13580;SDS011;6861;46.170;7.222;2022-11-25T11:50:17;1.00;;;0.68;;
13580;SDS011;6861;46.170;7.222;2022-11-25T11:52:53;1.83;;;0.82;;
13580;SDS011;6861;46.170;7.222;2022-11-25T11:55:28;1.30;;;0.90;;
13580;SDS011;6861;46.170;7.222;2022-11-25T11:58:12;0.70;;;0.60;;
13580;SDS011;6861;46.170;7.222;2022-11-25T12:00:50;3.08;;;0.80;;
13580;SDS011;6861;46.170;7.222;2022-11-25T12:03:29;1.63;;;1.00;;
13580;SDS011;6861;46.170;7.222;2022-11-25T12:06:04;2.63;;;1.23;;
13580;SDS011;6861;46.170;7.222;2022-11-25T12:08:37;1.35;;;0.75;;
13580;SDS011;6861;46.170;7.222;2022-11-25T12:11:14;0.90;;;0.65;;
13580;SDS011;6861;46.170;7.222;2022-11-25T12:13:47;1.73;;;0.70;;
13580;SDS011;6861;46.170;7.222;2022-11-25T12:16:23;2.22;;;0.70;;
13580;SDS011;6861;46.170;7.222;2022-11-25T12:18:54;1.92;;;0.85;;
13580;SDS011;6861;46.170;7.222;2022-11-25T12:21:28;1.10;;;0.52;;
13580;SDS011;6861;46.170;7.222;2022-11-25T12:24:05;2.08;;;0.70;;
13580;SDS011;6861;46.170;7.222;2022-11-25T12:26:42;0.70;;;0.60;;
13580;SDS011;6861;46.170;7.222;2022-11-25T12:29:18;3.72;;;0.77;;
13580;SDS011;6861;46.170;7.222;2022-11-25T12:31:51;2.17;;;0.75;;
13580;SDS011;6861;46.170;7.222;2022-11-25T12:34:23;2.30;;;1.00;;
13580;SDS011;6861;46.170;7.222;2022-11-25T12:37:02;1.25;;;0.90;;
13580;SDS011;6861;46.170;7.222;2022-11-25T12:39:35;1.30;;;0.60;;
13580;SDS011;6861;46.170;7.222;2022-11-25T12:42:11;1.65;;;1.10;;
13580;SDS011;6861;46.170;7.222;2022-11-25T12:44:43;1.33;;;0.70;;
13580;SDS011;6861;46.170;7.222;2022-11-25T12:47:18;1.77;;;0.80;;
13580;SDS011;6861;46.170;7.222;2022-11-25T12:49:47;1.33;;;0.70;;
13580;SDS011;6861;46.170;7.222;2022-11-25T12:52:22;1.40;;;0.68;;
13580;SDS011;6861;46.170;7.222;2022-11-25T12:55:03;2.55;;;0.68;;
13580;SDS011;6861;46.170;7.222;2022-11-25T13:00:38;1.73;;;0.80;;
13580;SDS011;6861;46.170;7.222;2022-11-25T13:03:45;1.92;;;0.50;;
13580;SDS011;6861;46.170;7.222;2022-11-25T13:09:44;2.63;;;0.80;;
13580;SDS011;6861;46.170;7.222;2022-11-25T13:12:32;2.63;;;1.00;;
13580;SDS011;6861;46.170;7.222;2022-11-25T13:15:21;2.28;;;0.77;;
13580;SDS011;6861;46.170;7.222;2022-11-25T13:17:55;1.10;;;0.80;;
13580;SDS011;6861;46.170;7.222;2022-11-25T13:20:32;2.33;;;1.00;;
13580;SDS011;6861;46.170;7.222;2022-11-25T13:23:23;5.57;;;1.08;;
13580;SDS011;6861;46.170;7.222;2022-11-25T13:32:25;2.35;;;0.65;;
13580;SDS011;6861;46.170;7.222;2022-11-25T13:41:32;4.53;;;1.10;;
13580;SDS011;6861;46.170;7.222;2022-11-25T13:44:03;3.60;;;0.93;;
13580;SDS011;6861;46.170;7.222;2022-11-25T13:46:37;4.13;;;1.13;;
13580;SDS011;6861;46.170;7.222;2022-11-25T13:49:20;3.80;;;1.00;;
13580;SDS011;6861;46.170;7.222;2022-11-25T13:51:50;3.08;;;1.40;;
13580;SDS011;6861;46.170;7.222;2022-11-25T13:54:19;4.75;;;1.70;;
13580;SDS011;6861;46.170;7.222;2022-11-25T13:57:13;2.22;;;1.20;;
13580;SDS011;6861;46.170;7.222;2022-11-25T13:59:59;3.53;;;1.20;;
13580;SDS011;6861;46.170;7.222;2022-11-25T14:02:33;2.65;;;0.93;;
13580;SDS011;6861;46.170;7.222;2022-11-25T14:08:18;2.67;;;0.93;;
13580;SDS011;6861;46.170;7.222;2022-11-25T14:10:54;6.10;;;1.08;;
13580;SDS011;6861;46.170;7.222;2022-11-25T14:13:42;1.67;;;1.05;;
13580;SDS011;6861;46.170;7.222;2022-11-25T14:16:24;4.60;;;1.10;;
13580;SDS011;6861;46.170;7.222;2022-11-25T14:22:11;3.15;;;1.02;;
13580;SDS011;6861;46.170;7.222;2022-11-25T14:24:51;3.35;;;1.10;;
13580;SDS011;6861;46.170;7.222;2022-11-25T14:27:21;2.10;;;1.00;;
13580;SDS011;6861;46.170;7.222;2022-11-25T14:29:53;3.58;;;1.20;;
13580;SDS011;6861;46.170;7.222;2022-11-25T14:32:26;3.33;;;0.80;;
13580;SDS011;6861;46.170;7.222;2022-11-25T14:35:01;2.47;;;1.30;;
13580;SDS011;6861;46.170;7.222;2022-11-25T14:37:36;3.40;;;1.20;;
13580;SDS011;6861;46.170;7.222;2022-11-25T14:40:07;4.90;;;0.90;;
13580;SDS011;6861;46.170;7.222;2022-11-25T14:42:40;6.63;;;1.48;;
13580;SDS011;6861;46.170;7.222;2022-11-25T14:45:22;3.42;;;0.90;;
13580;SDS011;6861;46.170;7.222;2022-11-25T14:47:50;1.80;;;0.90;;
13580;SDS011;6861;46.170;7.222;2022-11-25T14:50:17;1.90;;;0.90;;
13580;SDS011;6861;46.170;7.222;2022-11-25T14:52:45;2.15;;;1.55;;
13580;SDS011;6861;46.170;7.222;2022-11-25T14:55:13;2.30;;;1.10;;
13580;SDS011;6861;46.170;7.222;2022-11-25T14:57:49;6.43;;;1.23;;
13580;SDS011;6861;46.170;7.222;2022-11-25T15:00:18;2.38;;;1.13;;
13580;SDS011;6861;46.170;7.222;2022-11-25T15:02:54;2.58;;;1.05;;
13580;SDS011;6861;46.170;7.222;2022-11-25T15:05:23;3.75;;;0.90;;
13580;SDS011;6861;46.170;7.222;2022-11-25T15:07:56;2.38;;;0.70;;
13580;SDS011;6861;46.170;7.222;2022-11-25T15:13:21;13.70;;;8.27;;
13580;SDS011;6861;46.170;7.222;2022-11-25T15:15:54;21.00;;;10.98;;
13580;SDS011;6861;46.170;7.222;2022-11-25T15:18:27;5.47;;;2.00;;
13580;SDS011;6861;46.170;7.222;2022-11-25T15:20:55;7.65;;;1.83;;
13580;SDS011;6861;46.170;7.222;2022-11-25T15:23:26;6.85;;;3.85;;
13580;SDS011;6861;46.170;7.222;2022-11-25T15:25:56;3.25;;;1.70;;
13580;SDS011;6861;46.170;7.222;2022-11-25T15:28:23;3.25;;;1.15;;
13580;SDS011;6861;46.170;7.222;2022-11-25T15:30:57;2.55;;;0.80;;
13580;SDS011;6861;46.170;7.222;2022-11-25T15:33:26;1.63;;;1.30;;
13580;SDS011;6861;46.170;7.222;2022-11-25T15:35:55;1.23;;;0.80;;
13580;SDS011;6861;46.170;7.222;2022-11-25T15:38:35;1.98;;;1.20;;
13580;SDS011;6861;46.170;7.222;2022-11-25T15:41:05;2.63;;;1.30;;
13580;SDS011;6861;46.170;7.222;2022-11-25T15:43:42;2.58;;;1.30;;
13580;SDS011;6861;46.170;7.222;2022-11-25T15:46:10;2.15;;;1.00;;
13580;SDS011;6861;46.170;7.222;2022-11-25T15:48:40;6.90;;;3.40;;
13580;SDS011;6861;46.170;7.222;2022-11-25T15:51:16;3.33;;;1.15;;
13580;SDS011;6861;46.170;7.222;2022-11-25T15:53:51;1.58;;;0.80;;
13580;SDS011;6861;46.170;7.222;2022-11-25T15:56:20;2.30;;;1.58;;